Time,TemperatureF,DewpointF,PressureIn,WindDirection,WindDirectionDegrees,WindSpeedMPH,WindSpeedGustMPH,Humidity,HourlyPrecipIn,Conditions,Clouds,dailyrainin,SoftwareType,DateUTC
2013-02-13 00:05:00,23.2,23.0,29.82,South,180,0.0,-999.0,99,-99.99,,,0.00,Acu-Link.com,2013-02-13 05:05:00,
2013-02-13 00:20:00,25.0,24.8,29.80,South,180,0.0,-999.0,99,-99.99,,,0.00,Acu-Link.com,2013-02-13 05:20:00,
2013-02-13 00:35:00,25.7,25.5,29.80,South,180,0.0,-999.0,99,-99.99,,,0.00,Acu-Link.com,2013-02-13 05:35:00,
2013-02-13 00:50:00,26.1,25.9,29.81,South,180,0.0,-999.0,99,-99.99,,,0.00,Acu-Link.com,2013-02-13 05:50:00,
2013-02-13 01:05:00,26.6,26.4,29.80,South,180,0.0,-999.0,99,-99.99,,,0.00,Acu-Link.com,2013-02-13 06:05:00,
2013-02-13 01:21:00,26.8,26.6,29.79,South,180,0.0,-999.0,99,-99.99,,,0.00,Acu-Link.com,2013-02-13 06:21:00,
2013-02-13 01:36:00,27.3,26.6,29.78,South,180,0.0,-999.0,97,-99.99,,,0.00,Acu-Link.com,2013-02-13 06:36:00,
2013-02-13 01:51:00,27.7,26.2,29.78,South,180,0.0,-999.0,94,-99.99,,,0.00,Acu-Link.com,2013-02-13 06:51:00,
2013-02-13 02:06:00,27.9,26.1,29.78,South,180,0.0,-999.0,93,-99.99,,,0.00,Acu-Link.com,2013-02-13 07:06:00,
2013-02-13 02:22:00,27.9,26.1,29.78,South,180,0.0,-999.0,93,-99.99,,,0.00,Acu-Link.com,2013-02-13 07:22:00,
2013-02-13 02:37:00,27.9,26.1,29.77,South,180,0.0,-999.0,93,-99.99,,,0.00,Acu-Link.com,2013-02-13 07:37:00,
2013-02-13 02:52:00,27.5,26.3,29.77,South,180,0.0,-999.0,95,-99.99,,,0.00,Acu-Link.com,2013-02-13 07:52:00,
2013-02-13 03:07:00,27.5,25.7,29.76,South,180,0.0,-999.0,93,-99.99,,,0.00,Acu-Link.com,2013-02-13 08:07:00,
2013-02-13 03:22:00,27.5,25.7,29.77,South,180,0.0,-999.0,93,-99.99,,,0.00,Acu-Link.com,2013-02-13 08:22:00,
2013-02-13 03:38:00,27.0,25.5,29.76,South,180,0.0,-999.0,94,-99.99,,,0.00,Acu-Link.com,2013-02-13 08:38:00,
2013-02-13 03:53:00,25.9,24.2,29.76,South,180,0.0,-999.0,93,-99.99,,,0.00,Acu-Link.com,2013-02-13 08:53:00,
2013-02-13 04:15:00,25.5,24.8,29.75,South,180,0.0,-999.0,97,-99.99,,,0.00,Acu-Link.com,2013-02-13 09:15:00,
2013-02-13 04:31:00,25.9,25.7,29.76,South,180,0.0,-999.0,99,-99.99,,,0.00,Acu-Link.com,2013-02-13 09:31:00,
2013-02-13 04:46:00,26.1,25.9,29.76,South,180,0.0,-999.0,99,-99.99,,,0.00,Acu-Link.com,2013-02-13 09:46:00,
2013-02-13 05:01:00,27.0,26.5,29.75,South,180,1.1,-999.0,98,-99.99,,,0.00,Acu-Link.com,2013-02-13 10:01:00,
2013-02-13 05:16:00,27.0,26.5,29.75,South,180,0.0,-999.0,98,-99.99,,,0.00,Acu-Link.com,2013-02-13 10:16:00,
2013-02-13 05:31:00,27.1,26.6,29.75,South,180,0.0,-999.0,98,-99.99,,,0.00,Acu-Link.com,2013-02-13 10:31:00,
2013-02-13 05:47:00,27.1,26.6,29.73,South,180,0.0,-999.0,98,-99.99,,,0.00,Acu-Link.com,2013-02-13 10:47:00,
2013-02-13 06:02:00,27.1,26.6,29.74,South,180,0.0,-999.0,98,-99.99,,,0.00,Acu-Link.com,2013-02-13 11:02:00,
2013-02-13 06:17:00,27.1,26.6,29.73,South,180,0.0,-999.0,98,-99.99,,,0.00,Acu-Link.com,2013-02-13 11:17:00,
2013-02-13 06:32:00,27.3,26.8,29.74,South,180,1.1,-999.0,98,-99.99,,,0.00,Acu-Link.com,2013-02-13 11:32:00,
2013-02-13 06:48:00,27.3,26.3,29.72,South,180,1.1,-999.0,96,-99.99,,,0.00,Acu-Link.com,2013-02-13 11:48:00,
2013-02-13 07:03:00,27.1,24.8,29.73,SSE,157,0.0,-999.0,91,-99.99,,,0.00,Acu-Link.com,2013-02-13 12:03:00,
2013-02-13 07:18:00,27.1,24.6,29.73,SSE,157,0.0,-999.0,90,-99.99,,,0.00,Acu-Link.com,2013-02-13 12:18:00,
2013-02-13 07:33:00,27.1,24.6,29.72,SSE,157,0.0,-999.0,90,-99.99,,,0.00,Acu-Link.com,2013-02-13 12:33:00,
2013-02-13 07:49:00,27.1,24.8,29.71,SSE,157,0.0,-999.0,91,-99.99,,,0.00,Acu-Link.com,2013-02-13 12:49:00,
2013-02-13 08:04:00,27.1,24.8,29.72,SSE,157,0.0,-999.0,91,-99.99,,,0.00,Acu-Link.com,2013-02-13 13:04:00,
2013-02-13 08:19:00,27.5,24.7,29.71,SSE,157,1.7,-999.0,89,-99.99,,,0.00,Acu-Link.com,2013-02-13 13:19:00,
2013-02-13 08:34:00,27.5,24.1,29.70,SSE,157,2.2,-999.0,87,-99.99,,,0.00,Acu-Link.com,2013-02-13 13:34:00,
2013-02-13 08:49:00,27.5,24.1,29.71,ESE,112,5.8,-999.0,87,-99.99,,,0.00,Acu-Link.com,2013-02-13 13:49:00,
2013-02-13 09:05:00,27.5,24.1,29.69,ESE,112,2.2,-999.0,87,-99.99,,,0.00,Acu-Link.com,2013-02-13 14:05:00,
2013-02-13 09:20:00,27.5,24.1,29.69,ESE,112,0.0,-999.0,87,-99.99,,,0.00,Acu-Link.com,2013-02-13 14:20:00,
2013-02-13 09:35:00,27.5,23.9,29.68,East,90,2.2,-999.0,86,-99.99,,,0.00,Acu-Link.com,2013-02-13 14:35:00,
2013-02-13 09:50:00,28.4,24.5,29.69,East,90,2.7,-999.0,85,-99.99,,,0.00,Acu-Link.com,2013-02-13 14:50:00,
2013-02-13 10:05:00,28.9,24.4,29.69,East,90,0.0,-999.0,83,-99.99,,,0.00,Acu-Link.com,2013-02-13 15:05:00,
2013-02-13 10:21:00,29.5,24.4,29.70,East,90,0.0,-999.0,81,-99.99,,,0.00,Acu-Link.com,2013-02-13 15:21:00,
2013-02-13 10:36:00,30.0,24.3,29.69,East,90,2.2,-999.0,79,-99.99,,,0.00,Acu-Link.com,2013-02-13 15:36:00,
2013-02-13 10:51:00,30.4,25.3,29.69,East,90,1.7,-999.0,81,-99.99,,,0.00,Acu-Link.com,2013-02-13 15:51:00,
2013-02-13 11:06:00,31.5,24.8,29.69,East,90,1.7,-999.0,76,-99.99,,,0.00,Acu-Link.com,2013-02-13 16:06:00,
2013-02-13 11:21:00,30.9,24.6,29.68,East,90,1.7,-999.0,77,-99.99,,,0.00,Acu-Link.com,2013-02-13 16:21:00,
2013-02-13 11:37:00,29.8,24.4,29.68,East,90,0.0,-999.0,80,-99.99,,,0.00,Acu-Link.com,2013-02-13 16:37:00,
2013-02-13 11:52:00,29.1,24.3,29.67,East,90,2.2,-999.0,82,-99.99,,,0.00,Acu-Link.com,2013-02-13 16:52:00,
2013-02-13 12:07:00,30.6,24.9,29.67,East,90,1.7,-999.0,79,-99.99,,,0.00,Acu-Link.com,2013-02-13 17:07:00,
2013-02-13 12:22:00,30.9,24.9,29.67,WSW,247,1.7,-999.0,78,-99.99,,,0.00,Acu-Link.com,2013-02-13 17:22:00,
2013-02-13 12:38:00,31.3,25.3,29.65,WSW,247,1.1,-999.0,78,-99.99,,,0.00,Acu-Link.com,2013-02-13 17:38:00,
2013-02-13 12:53:00,31.8,25.1,29.65,West,270,2.2,-999.0,76,-99.99,,,0.00,Acu-Link.com,2013-02-13 17:53:00,
2013-02-13 13:08:00,32.2,25.2,29.63,NW,315,0.0,-999.0,75,-99.99,,,0.00,Acu-Link.com,2013-02-13 18:08:00,
2013-02-13 13:23:00,32.2,25.2,29.64,NW,315,0.0,-999.0,75,-99.99,,,0.00,Acu-Link.com,2013-02-13 18:23:00,
2013-02-13 13:38:00,32.5,25.2,29.62,SE,135,1.7,-999.0,74,-99.99,,,0.00,Acu-Link.com,2013-02-13 18:38:00,
2013-02-13 13:54:00,32.7,25.0,29.64,SW,225,0.0,-999.0,73,-99.99,,,0.00,Acu-Link.com,2013-02-13 18:54:00,
2013-02-13 14:09:00,33.6,25.6,29.62,South,180,1.7,-999.0,72,-99.99,,,0.00,Acu-Link.com,2013-02-13 19:09:00,
2013-02-13 14:24:00,34.7,26.3,29.63,SSW,202,3.2,-999.0,71,-99.99,,,0.00,Acu-Link.com,2013-02-13 19:24:00,
2013-02-13 14:39:00,34.2,25.8,29.62,SSE,157,1.1,-999.0,71,-99.99,,,0.00,Acu-Link.com,2013-02-13 19:39:00,
2013-02-13 14:54:00,34.5,25.4,29.62,SSE,157,3.7,-999.0,69,-99.99,,,0.00,Acu-Link.com,2013-02-13 19:54:00,
2013-02-13 15:10:00,34.0,25.9,29.62,SE,135,1.1,-999.0,72,-99.99,,,0.00,Acu-Link.com,2013-02-13 20:10:00,
2013-02-13 15:25:00,34.3,26.2,29.62,SE,135,2.2,-999.0,72,-99.99,,,0.00,Acu-Link.com,2013-02-13 20:25:00,
2013-02-13 15:40:00,33.1,25.4,29.63,ESE,112,0.0,-999.0,73,-99.99,,,0.00,Acu-Link.com,2013-02-13 20:40:00,
2013-02-13 15:55:00,32.4,25.1,29.63,ESE,112,2.7,-999.0,74,-99.99,,,0.00,Acu-Link.com,2013-02-13 20:55:00,
2013-02-13 16:10:00,31.1,24.4,29.63,ESE,112,3.7,-999.0,76,-99.99,,,0.00,Acu-Link.com,2013-02-13 21:10:00,
2013-02-13 16:26:00,30.9,24.9,29.63,ESE,112,4.2,-999.0,78,-99.99,,,0.00,Acu-Link.com,2013-02-13 21:26:00,
2013-02-13 16:41:00,30.7,24.7,29.63,ESE,112,2.7,-999.0,78,-99.99,,,0.00,Acu-Link.com,2013-02-13 21:41:00,
2013-02-13 16:56:00,30.2,24.2,29.63,ESE,112,1.7,-999.0,78,-99.99,,,0.00,Acu-Link.com,2013-02-13 21:56:00,
2013-02-13 17:11:00,29.5,24.4,29.63,ESE,112,2.2,-999.0,81,-99.99,,,0.00,Acu-Link.com,2013-02-13 22:11:00,
2013-02-13 17:26:00,29.3,24.2,29.64,ESE,112,2.2,-999.0,81,-99.99,,,0.00,Acu-Link.com,2013-02-13 22:26:00,
2013-02-13 17:42:00,28.9,23.8,29.63,ESE,112,1.1,-999.0,81,-99.99,,,0.00,Acu-Link.com,2013-02-13 22:42:00,
2013-02-13 17:57:00,28.2,23.4,29.64,ESE,112,0.0,-999.0,82,-99.99,,,0.00,Acu-Link.com,2013-02-13 22:57:00,
2013-02-13 18:12:00,27.1,23.5,29.65,ESE,112,0.0,-999.0,86,-99.99,,,0.00,Acu-Link.com,2013-02-13 23:12:00,
2013-02-13 18:27:00,26.2,22.3,29.65,ESE,112,0.0,-999.0,85,-99.99,,,0.00,Acu-Link.com,2013-02-13 23:27:00,
2013-02-13 18:43:00,25.3,23.0,29.66,ESE,112,0.0,-999.0,91,-99.99,,,0.00,Acu-Link.com,2013-02-13 23:43:00,
2013-02-13 18:58:00,25.0,23.3,29.65,ESE,112,0.0,-999.0,93,-99.99,,,0.00,Acu-Link.com,2013-02-13 23:58:00,
2013-02-13 19:13:00,24.6,23.1,29.66,ESE,112,0.0,-999.0,94,-99.99,,,0.00,Acu-Link.com,2013-02-14 00:13:00,
2013-02-13 19:28:00,24.6,23.1,29.67,ESE,112,1.7,-999.0,94,-99.99,,,0.00,Acu-Link.com,2013-02-14 00:28:00,
2013-02-13 19:43:00,24.8,23.1,29.69,ESE,112,0.0,-999.0,93,-99.99,,,0.00,Acu-Link.com,2013-02-14 00:43:00,
2013-02-13 19:59:00,24.4,22.9,29.70,ESE,112,1.7,-999.0,94,-99.99,,,0.00,Acu-Link.com,2013-02-14 00:59:00,
2013-02-13 20:14:00,24.4,23.2,29.69,ESE,112,0.0,-999.0,95,-99.99,,,0.00,Acu-Link.com,2013-02-14 01:14:00,
2013-02-13 20:29:00,23.9,22.7,29.69,ESE,112,1.7,-999.0,95,-99.99,,,0.00,Acu-Link.com,2013-02-14 01:29:00,
2013-02-13 20:44:00,23.7,22.7,29.70,ESE,112,0.0,-999.0,96,-99.99,,,0.00,Acu-Link.com,2013-02-14 01:44:00,
2013-02-13 20:59:00,23.2,22.5,29.70,ESE,112,0.0,-999.0,97,-99.99,,,0.00,Acu-Link.com,2013-02-14 01:59:00,
2013-02-13 21:15:00,23.0,22.5,29.70,ESE,112,0.0,-999.0,98,-99.99,,,0.00,Acu-Link.com,2013-02-14 02:15:00,
2013-02-13 21:30:00,23.5,23.0,29.71,ESE,112,1.7,-999.0,98,-99.99,,,0.00,Acu-Link.com,2013-02-14 02:30:00,
2013-02-13 21:45:00,23.7,23.0,29.71,ESE,112,0.0,-999.0,97,-99.99,,,0.00,Acu-Link.com,2013-02-14 02:45:00,
2013-02-13 22:00:00,23.7,23.0,29.71,ESE,112,0.0,-999.0,97,-99.99,,,0.00,Acu-Link.com,2013-02-14 03:00:00,
2013-02-13 22:15:00,23.9,23.2,29.71,ESE,112,0.0,-999.0,97,-99.99,,,0.00,Acu-Link.com,2013-02-14 03:15:00,
2013-02-13 22:31:00,23.7,23.2,29.72,ESE,112,0.0,-999.0,98,-99.99,,,0.00,Acu-Link.com,2013-02-14 03:31:00,
2013-02-13 22:46:00,24.1,23.6,29.73,ESE,112,2.2,-999.0,98,-99.99,,,0.00,Acu-Link.com,2013-02-14 03:46:00,
2013-02-13 23:01:00,24.1,23.6,29.72,West,270,2.7,-999.0,98,-99.99,,,0.00,Acu-Link.com,2013-02-14 04:01:00,
2013-02-13 23:16:00,23.7,23.5,29.73,South,180,1.1,-999.0,99,-99.99,,,0.00,Acu-Link.com,2013-02-14 04:16:00,
2013-02-13 23:32:00,23.7,23.5,29.73,South,180,0.0,-999.0,99,-99.99,,,0.00,Acu-Link.com,2013-02-14 04:32:00,
2013-02-13 23:47:00,23.5,23.3,29.73,South,180,0.0,-999.0,99,-99.99,,,0.00,Acu-Link.com,2013-02-14 04:47:00,